RPC836 RPVD-RPVB
Flight info
| Callsign | RPC836 |
|---|---|
| Flight time | 0h 33m |
| Altitude | 8000 |
| Route | NANA5R NANAS NANA1A |
| Aircraft | BE36/L-SDFGRY/S |
Departure
| Time | 2026-04-27 11:16 |
|---|---|
| Airport | Sibulan Airport (RPVD) |
Arrival
| Time | 2026-04-27 11:49 |
|---|---|
| Airport | Bacolod-Silay International Airport (RPVB) |
| Time | Latitude | Longitude | Altitude | Speed | Heading |
|---|---|---|---|---|---|
| 2026-04-27 11:04 | 9.33402 | 123.29366 | 22 ft | 0 kts | 93° |
| 2026-04-27 11:14 | 9.33412 | 123.29374 | 22 ft | 5 kts | 19° |
| 2026-04-27 11:14 | 9.33457 | 123.29389 | 23 ft | 10 kts | 53° |
| 2026-04-27 11:14 | 9.33461 | 123.29416 | 23 ft | 0 kts | 93° |
| 2026-04-27 11:15 | 9.33447 | 123.29680 | 21 ft | 80 kts | 93° |
| 2026-04-27 11:15 | 9.33411 | 123.30402 | 191 ft | 119 kts | 92° |
| 2026-04-27 11:15 | 9.33402 | 123.31293 | 533 ft | 131 kts | 89° |
| 2026-04-27 11:16 | 9.33414 | 123.32225 | 936 ft | 134 kts | 90° |
| 2026-04-27 11:16 | 9.33491 | 123.33181 | 1278 ft | 139 kts | 72° |
| 2026-04-27 11:16 | 9.34035 | 123.33994 | 1596 ft | 144 kts | 39° |
| 2026-04-27 11:16 | 9.34958 | 123.34389 | 1954 ft | 148 kts | 10° |
| 2026-04-27 11:17 | 9.36005 | 123.34319 | 2198 ft | 158 kts | 346° |
| 2026-04-27 11:17 | 9.36961 | 123.33785 | 2562 ft | 158 kts | 321° |
| 2026-04-27 11:17 | 9.37707 | 123.32967 | 2881 ft | 160 kts | 314° |
| 2026-04-27 11:17 | 9.38444 | 123.32106 | 3166 ft | 165 kts | 313° |
| 2026-04-27 11:18 | 9.39185 | 123.31202 | 3445 ft | 168 kts | 313° |
| 2026-04-27 11:18 | 9.39862 | 123.30209 | 3624 ft | 178 kts | 298° |
| 2026-04-27 11:18 | 9.40498 | 123.29130 | 3813 ft | 179 kts | 314° |
| 2026-04-27 11:18 | 9.41413 | 123.28284 | 4032 ft | 178 kts | 324° |
| 2026-04-27 11:19 | 9.42378 | 123.27492 | 4262 ft | 179 kts | 324° |
| 2026-04-27 11:19 | 9.43336 | 123.26686 | 4502 ft | 179 kts | 323° |
| 2026-04-27 11:19 | 9.44290 | 123.25871 | 4741 ft | 180 kts | 323° |
| 2026-04-27 11:19 | 9.45247 | 123.25052 | 4977 ft | 181 kts | 323° |
| 2026-04-27 11:20 | 9.46210 | 123.24228 | 5219 ft | 181 kts | 322° |
| 2026-04-27 11:20 | 9.47175 | 123.23401 | 5458 ft | 182 kts | 322° |
| 2026-04-27 11:20 | 9.48059 | 123.22478 | 5698 ft | 184 kts | 306° |
| 2026-04-27 11:20 | 9.48782 | 123.21404 | 5942 ft | 185 kts | 307° |
| 2026-04-27 11:21 | 9.49527 | 123.20340 | 6188 ft | 186 kts | 307° |
| 2026-04-27 11:21 | 9.50275 | 123.19273 | 6430 ft | 186 kts | 306° |
| 2026-04-27 11:21 | 9.51022 | 123.18201 | 6656 ft | 186 kts | 306° |
| 2026-04-27 11:21 | 9.51769 | 123.17129 | 6877 ft | 187 kts | 306° |
| 2026-04-27 11:22 | 9.52521 | 123.16051 | 7100 ft | 189 kts | 306° |
| 2026-04-27 11:22 | 9.53284 | 123.14956 | 7291 ft | 191 kts | 306° |
| 2026-04-27 11:22 | 9.54046 | 123.13862 | 7475 ft | 193 kts | 306° |
| 2026-04-27 11:22 | 9.54830 | 123.12736 | 7672 ft | 194 kts | 306° |
| 2026-04-27 11:23 | 9.55612 | 123.11613 | 7819 ft | 196 kts | 306° |
| 2026-04-27 11:23 | 9.56398 | 123.10485 | 7964 ft | 196 kts | 306° |
| 2026-04-27 11:23 | 9.57193 | 123.09344 | 8000 ft | 201 kts | 307° |
| 2026-04-27 11:23 | 9.57998 | 123.08189 | 8000 ft | 205 kts | 306° |
| 2026-04-27 11:24 | 9.58829 | 123.06996 | 8008 ft | 209 kts | 307° |
| 2026-04-27 11:24 | 9.59674 | 123.05781 | 8008 ft | 211 kts | 306° |
| 2026-04-27 11:24 | 9.60519 | 123.04566 | 8005 ft | 211 kts | 307° |
| 2026-04-27 11:24 | 9.61369 | 123.03345 | 8006 ft | 213 kts | 307° |
| 2026-04-27 11:25 | 9.62228 | 123.02110 | 8005 ft | 214 kts | 307° |
| 2026-04-27 11:25 | 9.63142 | 123.00929 | 7998 ft | 213 kts | 319° |
| 2026-04-27 11:25 | 9.64390 | 123.00122 | 7994 ft | 209 kts | 340° |
| 2026-04-27 11:25 | 9.65762 | 122.99803 | 7991 ft | 203 kts | 359° |
| 2026-04-27 11:26 | 9.67170 | 122.99674 | 7998 ft | 203 kts | 358° |
| 2026-04-27 11:26 | 9.68580 | 122.99533 | 8003 ft | 204 kts | 358° |
| 2026-04-27 11:26 | 9.69987 | 122.99393 | 7997 ft | 203 kts | 358° |
| 2026-04-27 11:26 | 9.71386 | 122.99255 | 8001 ft | 201 kts | 357° |
| 2026-04-27 11:27 | 9.72777 | 122.99119 | 7998 ft | 200 kts | 358° |
| 2026-04-27 11:27 | 9.74164 | 122.98981 | 7995 ft | 201 kts | 358° |
| 2026-04-27 11:27 | 9.75545 | 122.98845 | 7997 ft | 198 kts | 358° |
| 2026-04-27 11:27 | 9.76924 | 122.98710 | 8003 ft | 200 kts | 358° |
| 2026-04-27 11:28 | 9.78316 | 122.98572 | 8000 ft | 201 kts | 358° |
| 2026-04-27 11:28 | 9.79709 | 122.98508 | 8001 ft | 200 kts | 6° |
| 2026-04-27 11:28 | 9.81101 | 122.98571 | 8002 ft | 201 kts | 6° |
| 2026-04-27 11:28 | 9.82503 | 122.98626 | 8003 ft | 202 kts | 5° |
| 2026-04-27 11:29 | 9.83905 | 122.98674 | 8004 ft | 201 kts | 6° |
| 2026-04-27 11:29 | 9.85287 | 122.98722 | 8008 ft | 201 kts | 5° |
| 2026-04-27 11:29 | 9.86693 | 122.98774 | 8006 ft | 202 kts | 5° |
| 2026-04-27 11:29 | 9.88101 | 122.98824 | 8007 ft | 202 kts | 5° |
| 2026-04-27 11:30 | 9.89505 | 122.98875 | 8005 ft | 202 kts | 5° |
| 2026-04-27 11:30 | 9.90917 | 122.98927 | 8007 ft | 203 kts | 6° |
| 2026-04-27 11:30 | 9.92325 | 122.98977 | 8011 ft | 203 kts | 5° |
| 2026-04-27 11:30 | 9.93734 | 122.99027 | 8007 ft | 203 kts | 6° |
| 2026-04-27 11:31 | 9.95145 | 122.99079 | 8005 ft | 203 kts | 5° |
| 2026-04-27 11:31 | 9.96560 | 122.99130 | 8004 ft | 204 kts | 5° |
| 2026-04-27 11:31 | 9.97978 | 122.99181 | 8005 ft | 203 kts | 5° |
| 2026-04-27 11:31 | 9.99380 | 122.99230 | 8004 ft | 201 kts | 6° |
| 2026-04-27 11:32 | 10.00782 | 122.99284 | 8003 ft | 202 kts | 5° |
| 2026-04-27 11:32 | 10.02189 | 122.99333 | 8001 ft | 202 kts | 5° |
| 2026-04-27 11:32 | 10.03593 | 122.99383 | 8002 ft | 202 kts | 5° |
| 2026-04-27 11:32 | 10.04999 | 122.99432 | 8004 ft | 202 kts | 5° |
| 2026-04-27 11:33 | 10.06400 | 122.99481 | 8004 ft | 201 kts | 6° |
| 2026-04-27 11:33 | 10.07805 | 122.99537 | 7999 ft | 201 kts | 6° |
| 2026-04-27 11:33 | 10.09192 | 122.99588 | 7993 ft | 198 kts | 5° |
| 2026-04-27 11:33 | 10.10566 | 122.99636 | 7997 ft | 198 kts | 5° |
| 2026-04-27 11:34 | 10.11949 | 122.99686 | 7996 ft | 199 kts | 5° |
| 2026-04-27 11:34 | 10.13337 | 122.99737 | 7998 ft | 200 kts | 5° |
| 2026-04-27 11:34 | 10.14731 | 122.99787 | 7994 ft | 200 kts | 5° |
| 2026-04-27 11:34 | 10.16125 | 122.99837 | 7995 ft | 200 kts | 5° |
| 2026-04-27 11:35 | 10.17501 | 122.99888 | 7998 ft | 201 kts | 5° |
| 2026-04-27 11:35 | 10.18894 | 122.99937 | 8002 ft | 200 kts | 5° |
| 2026-04-27 11:35 | 10.20285 | 122.99988 | 8001 ft | 200 kts | 5° |
| 2026-04-27 11:35 | 10.21676 | 123.00040 | 7998 ft | 200 kts | 5° |
| 2026-04-27 11:36 | 10.23068 | 123.00093 | 8002 ft | 200 kts | 4° |
| 2026-04-27 11:36 | 10.24459 | 123.00134 | 8001 ft | 200 kts | 4° |
| 2026-04-27 11:36 | 10.25870 | 123.00188 | 7999 ft | 200 kts | 5° |
| 2026-04-27 11:36 | 10.27248 | 123.00240 | 8001 ft | 200 kts | 5° |
| 2026-04-27 11:37 | 10.28642 | 123.00291 | 7997 ft | 201 kts | 5° |
| 2026-04-27 11:37 | 10.30039 | 123.00346 | 7989 ft | 201 kts | 4° |
| 2026-04-27 11:37 | 10.31439 | 123.00392 | 7948 ft | 201 kts | 4° |
| 2026-04-27 11:37 | 10.32841 | 123.00442 | 7821 ft | 203 kts | 5° |
| 2026-04-27 11:38 | 10.34250 | 123.00498 | 7678 ft | 202 kts | 5° |
| 2026-04-27 11:38 | 10.35653 | 123.00549 | 7536 ft | 201 kts | 5° |
| 2026-04-27 11:38 | 10.37039 | 123.00599 | 7394 ft | 198 kts | 5° |
| 2026-04-27 11:38 | 10.38407 | 123.00648 | 7249 ft | 196 kts | 5° |
| 2026-04-27 11:39 | 10.39761 | 123.00698 | 7110 ft | 194 kts | 5° |
| 2026-04-27 11:39 | 10.41112 | 123.00748 | 6944 ft | 193 kts | 5° |
| 2026-04-27 11:39 | 10.42453 | 123.00797 | 6781 ft | 192 kts | 5° |
| 2026-04-27 11:39 | 10.43785 | 123.00846 | 6618 ft | 191 kts | 5° |
| 2026-04-27 11:40 | 10.45109 | 123.00894 | 6454 ft | 190 kts | 5° |
| 2026-04-27 11:40 | 10.46428 | 123.00941 | 6292 ft | 190 kts | 6° |
| 2026-04-27 11:40 | 10.47748 | 123.00991 | 6122 ft | 190 kts | 6° |
| 2026-04-27 11:40 | 10.49068 | 123.01038 | 5950 ft | 189 kts | 6° |
| 2026-04-27 11:41 | 10.50375 | 123.01085 | 5780 ft | 187 kts | 6° |
| 2026-04-27 11:41 | 10.51672 | 123.01134 | 5614 ft | 186 kts | 6° |
| 2026-04-27 11:41 | 10.52964 | 123.01181 | 5440 ft | 186 kts | 6° |
| 2026-04-27 11:41 | 10.54245 | 123.00976 | 5267 ft | 190 kts | 342° |
| 2026-04-27 11:42 | 10.55348 | 123.00228 | 5094 ft | 194 kts | 317° |
| 2026-04-27 11:42 | 10.56057 | 122.99060 | 4923 ft | 196 kts | 290° |
| 2026-04-27 11:42 | 10.56326 | 122.97707 | 4757 ft | 195 kts | 281° |
| 2026-04-27 11:42 | 10.56637 | 122.96370 | 4590 ft | 194 kts | 285° |
| 2026-04-27 11:43 | 10.57016 | 122.95080 | 4422 ft | 193 kts | 289° |
| 2026-04-27 11:43 | 10.57476 | 122.93807 | 4239 ft | 191 kts | 293° |
| 2026-04-27 11:43 | 10.58176 | 122.92690 | 4061 ft | 186 kts | 323° |
| 2026-04-27 11:43 | 10.59315 | 122.92142 | 3890 ft | 179 kts | 352° |
| 2026-04-27 11:44 | 10.60541 | 122.92132 | 3619 ft | 177 kts | 15° |
| 2026-04-27 11:44 | 10.61664 | 122.92577 | 3387 ft | 171 kts | 31° |
| 2026-04-27 11:44 | 10.62707 | 122.93147 | 3173 ft | 169 kts | 32° |
| 2026-04-27 11:44 | 10.63725 | 122.93725 | 2958 ft | 167 kts | 33° |
| 2026-04-27 11:45 | 10.64709 | 122.94313 | 2749 ft | 162 kts | 33° |
| 2026-04-27 11:45 | 10.65355 | 122.94689 | 2614 ft | 161 kts | 32° |
| 2026-04-27 11:45 | 10.66633 | 122.95437 | 2359 ft | 158 kts | 32° |
| 2026-04-27 11:45 | 10.67584 | 122.95991 | 2172 ft | 158 kts | 31° |
| 2026-04-27 11:46 | 10.68532 | 122.96549 | 1978 ft | 156 kts | 32° |
| 2026-04-27 11:46 | 10.69459 | 122.97095 | 1789 ft | 152 kts | 30° |
| 2026-04-27 11:46 | 10.70361 | 122.97622 | 1595 ft | 144 kts | 30° |
| 2026-04-27 11:46 | 10.71179 | 122.98104 | 1409 ft | 131 kts | 30° |
| 2026-04-27 11:47 | 10.71932 | 122.98547 | 1214 ft | 121 kts | 32° |
| 2026-04-27 11:47 | 10.72649 | 122.98980 | 1033 ft | 118 kts | 30° |
| 2026-04-27 11:47 | 10.73364 | 122.99379 | 922 ft | 116 kts | 31° |
| 2026-04-27 11:47 | 10.73999 | 122.99757 | 788 ft | 99 kts | 31° |
| 2026-04-27 11:48 | 10.74583 | 123.00093 | 671 ft | 95 kts | 31° |
| 2026-04-27 11:48 | 10.75161 | 123.00426 | 546 ft | 96 kts | 31° |
| 2026-04-27 11:48 | 10.75735 | 123.00761 | 395 ft | 94 kts | 32° |
| 2026-04-27 11:48 | 10.76289 | 123.01096 | 292 ft | 90 kts | 33° |
| 2026-04-27 11:49 | 10.76792 | 123.01393 | 126 ft | 74 kts | 32° |
| 2026-04-27 11:49 | 10.77138 | 123.01601 | 90 ft | 44 kts | 29° |
| 2026-04-27 11:49 | 10.77290 | 123.01646 | 87 ft | 15 kts | 309° |
| 2026-04-27 11:49 | 10.77349 | 123.01545 | 89 ft | 13 kts | 297° |
| 2026-04-27 11:50 | 10.77360 | 123.01481 | 86 ft | 11 kts | 212° |
| 2026-04-27 11:50 | 10.77273 | 123.01432 | 82 ft | 13 kts | 210° |
| 2026-04-27 11:50 | 10.77264 | 123.01379 | 83 ft | 10 kts | 308° |
| 2026-04-27 11:50 | 10.77299 | 123.01384 | 80 ft | 0 kts | 29° |